Lammy — PBRE — position and weather

sailwx.info

Track history (hours):
 
Tides and Currents Weather Stations Pressure Air Temp Water Temp Dewpoint Dewpoint Depression Visibility Wind Speed Wind Dir Waves Ship Positions

Lammy

Last reported at 2014-Nov-28 21:32 UTC. Time now 2014-Nov-29 01:19 UTC.
Position N 57°02' E 017°20'.

Length 95 m; draft 5.6 m.

Type: Cargo ship. MMSI: 245391000.

Date/timePositionNaut miles runAvg speedWind from/ knotsBaromVisibWave heightAir tempDewpointWater temp
2014-Nov-28 21:32N 57°02' E 017°20'1111.5
2014-Nov-28 20:33N 57°12' E 017°28'  
2014-Nov-22 16:32N 55°30' E 015°00'1312.2
2014-Nov-22 15:29N 55°23' E 014°40'4711.0
2014-Nov-22 11:12N 55°13' E 013°20'812.0
2014-Nov-22 10:31N 55°14' E 013°06'1211.9
2014-Nov-22 09:33N 55°16' E 012°46'9 9.5
2014-Nov-22 08:33N 55°25' E 012°39'1110.6
2014-Nov-22 07:33N 55°35' E 012°42'1110.8
2014-Nov-22 06:33N 55°46' E 012°41'1111.5
2014-Nov-22 05:33N 55°57' E 012°38'1010.3
2014-Nov-22 04:33N 56°07' E 012°30'1211.9
2014-Nov-22 03:33N 56°14' E 012°13'1111.1
2014-Nov-22 02:33N 56°23' E 012°01'6211.6
2014-Nov-21 21:13N 57°21' E 011°23'811.5
2014-Nov-21 20:33N 57°28' E 011°17'1611.7
2014-Nov-21 19:09N 57°40' E 010°57'7411.1
2014-Nov-21 12:26N 57°15' E 008°47'34011.7
2014-Nov-20 07:29N 53°51' E 000°48'1111.8
2014-Nov-20 06:32N 53°44' E 000°33'1111.5
2014-Nov-20 05:33N 53°36' E 000°20'9 9.3
2014-Nov-20 04:33N 53°35' E 000°04'1010.1
2014-Nov-20 03:33N 53°39' W 000°11'7 6.9
2014-Nov-20 02:33N 53°45' W 000°18'0 0.1
2014-Nov-20 01:33N 53°45' W 000°18'0 0.0
2014-Nov-20 00:33N 53°45' W 000°18'0 0.0
2014-Nov-19 23:33N 53°45' W 000°18'0 0.0
2014-Nov-19 22:33N 53°45' W 000°18'0 0.0
2014-Nov-19 21:34N 53°45' W 000°18'0 0.0
2014-Nov-19 20:33N 53°45' W 000°18'0 0.0
2014-Nov-19 19:33N 53°45' W 000°18'0 0.0
2014-Nov-19 18:34N 53°45' W 000°18'0 0.0
2014-Nov-19 17:32N 53°45' W 000°18'0 0.0
2014-Nov-19 16:33N 53°45' W 000°18'0 0.0
2014-Nov-19 15:33N 53°45' W 000°18'0 0.0
2014-Nov-19 14:34N 53°45' W 000°18'0 0.0
2014-Nov-19 13:33N 53°45' W 000°18'0 0.0
2014-Nov-19 12:33N 53°45' W 000°18'0 0.0
2014-Nov-19 11:33N 53°45' W 000°18'0 0.0
2014-Nov-19 10:33N 53°45' W 000°18'0 0.0
2014-Nov-19 09:34N 53°45' W 000°18'0 0.0
2014-Nov-19 08:34N 53°45' W 000°18'0 0.0
2014-Nov-19 07:33N 53°45' W 000°18'0 0.0
2014-Nov-19 06:33N 53°45' W 000°18'0 0.0
2014-Nov-19 05:33N 53°45' W 000°18'0 0.0
2014-Nov-19 04:33N 53°45' W 000°18'0 0.0
2014-Nov-19 03:33N 53°45' W 000°18'0 0.0
2014-Nov-19 02:33N 53°45' W 000°18'0 0.0
2014-Nov-19 01:33N 53°45' W 000°18'0 0.0
2014-Nov-19 00:33N 53°45' W 000°18'0 0.0
2014-Nov-18 23:34N 53°45' W 000°18'0 0.0
2014-Nov-18 22:33N 53°45' W 000°18'0 0.0
2014-Nov-18 21:33N 53°45' W 000°18'  
Track history (hours):
 
Tides and Currents Weather Stations Pressure Air Temp Water Temp Dewpoint Dewpoint Depression Visibility Wind Speed Wind Dir Waves Ship Positions

Lammy

Last reported at 2014-Nov-28 21:32 UTC. Time now 2014-Nov-29 01:19 UTC.
Position N 57°02' E 017°20'.

Length 95 m; draft 5.6 m.

Type: Cargo ship. MMSI: 245391000.

Date/timePositionNaut miles runAvg speedWind from/ knotsBaromVisibWave heightAir tempDewpointWater temp
2014-Nov-28 21:32N 57°02' E 017°20'1111.5
2014-Nov-28 20:33N 57°12' E 017°28'  
2014-Nov-22 16:32N 55°30' E 015°00'1312.2
2014-Nov-22 15:29N 55°23' E 014°40'4711.0
2014-Nov-22 11:12N 55°13' E 013°20'812.0
2014-Nov-22 10:31N 55°14' E 013°06'1211.9
2014-Nov-22 09:33N 55°16' E 012°46'9 9.5
2014-Nov-22 08:33N 55°25' E 012°39'1110.6
2014-Nov-22 07:33N 55°35' E 012°42'1110.8
2014-Nov-22 06:33N 55°46' E 012°41'1111.5
2014-Nov-22 05:33N 55°57' E 012°38'1010.3
2014-Nov-22 04:33N 56°07' E 012°30'1211.9
2014-Nov-22 03:33N 56°14' E 012°13'1111.1
2014-Nov-22 02:33N 56°23' E 012°01'6211.6
2014-Nov-21 21:13N 57°21' E 011°23'811.5
2014-Nov-21 20:33N 57°28' E 011°17'1611.7
2014-Nov-21 19:09N 57°40' E 010°57'7411.1
2014-Nov-21 12:26N 57°15' E 008°47'34011.7
2014-Nov-20 07:29N 53°51' E 000°48'1111.8
2014-Nov-20 06:32N 53°44' E 000°33'1111.5
2014-Nov-20 05:33N 53°36' E 000°20'9 9.3
2014-Nov-20 04:33N 53°35' E 000°04'1010.1
2014-Nov-20 03:33N 53°39' W 000°11'7 6.9
2014-Nov-20 02:33N 53°45' W 000°18'0 0.1
2014-Nov-20 01:33N 53°45' W 000°18'0 0.0
2014-Nov-20 00:33N 53°45' W 000°18'0 0.0
2014-Nov-19 23:33N 53°45' W 000°18'0 0.0
2014-Nov-19 22:33N 53°45' W 000°18'0 0.0
2014-Nov-19 21:34N 53°45' W 000°18'0 0.0
2014-Nov-19 20:33N 53°45' W 000°18'0 0.0
2014-Nov-19 19:33N 53°45' W 000°18'0 0.0
2014-Nov-19 18:34N 53°45' W 000°18'0 0.0
2014-Nov-19 17:32N 53°45' W 000°18'0 0.0
2014-Nov-19 16:33N 53°45' W 000°18'0 0.0
2014-Nov-19 15:33N 53°45' W 000°18'0 0.0
2014-Nov-19 14:34N 53°45' W 000°18'0 0.0
2014-Nov-19 13:33N 53°45' W 000°18'0 0.0
2014-Nov-19 12:33N 53°45' W 000°18'0 0.0
2014-Nov-19 11:33N 53°45' W 000°18'0 0.0
2014-Nov-19 10:33N 53°45' W 000°18'0 0.0
2014-Nov-19 09:34N 53°45' W 000°18'0 0.0
2014-Nov-19 08:34N 53°45' W 000°18'0 0.0
2014-Nov-19 07:33N 53°45' W 000°18'0 0.0
2014-Nov-19 06:33N 53°45' W 000°18'0 0.0
2014-Nov-19 05:33N 53°45' W 000°18'0 0.0
2014-Nov-19 04:33N 53°45' W 000°18'0 0.0
2014-Nov-19 03:33N 53°45' W 000°18'0 0.0
2014-Nov-19 02:33N 53°45' W 000°18'0 0.0
2014-Nov-19 01:33N 53°45' W 000°18'0 0.0
2014-Nov-19 00:33N 53°45' W 000°18'0 0.0
2014-Nov-18 23:34N 53°45' W 000°18'0 0.0
2014-Nov-18 22:33N 53°45' W 000°18'0 0.0
2014-Nov-18 21:33N 53°45' W 000°18'  

Dump ship's entire track history